EVA011 KLAX-RCTP
Flight info
| Callsign | EVA011 |
|---|---|
| Flight time | N/A |
| Altitude | 30000 |
| Route | SUMMR2 MCKEY DCT LIBBO DCT BRINY DCT BOARS DCT AMAKR DCT REDWD DCT TRYSH DCT 41N130W 43N140W/N0495F320 46N150W 48N160W 49N170W 48N180E/N0492F340 45N170E 39N160E 32N150E/N0484F360 DCT UKATA DCT BIXAK DCT DELTA DCT ONC/N0481F380 Y525 KXC Y62 GANAS Y576 LILRA R595 GRACE GRACE1A |
| Aircraft | B77W/H-SDE1E2E3FGHIJ1J3J4J5LM1P2RWXYZ/LB1D1 |
Departure
| Time | N/A |
|---|---|
| Airport | Los Angeles International Airport (KLAX) |
Arrival
| Time | 2026-05-04 15:01 |
|---|---|
| Airport | Taiwan Taoyuan International Airport (RCTP) |
| Time | Latitude | Longitude | Altitude | Speed | Heading |
|---|---|---|---|---|---|
| 2026-05-04 13:00 | 28.23320 | 134.23211 | 36073 ft | 425 kts | 250° |
| 2026-05-04 13:00 | 28.22320 | 134.20057 | 36073 ft | 425 kts | 250° |
| 2026-05-04 13:01 | 28.20315 | 134.13745 | 36074 ft | 426 kts | 250° |
| 2026-05-04 13:01 | 28.18306 | 134.07426 | 36073 ft | 426 kts | 250° |
| 2026-05-04 13:02 | 28.16309 | 134.01160 | 36077 ft | 426 kts | 250° |
| 2026-05-04 13:02 | 28.14294 | 133.94850 | 36073 ft | 426 kts | 250° |
| 2026-05-04 13:03 | 28.12278 | 133.88543 | 36072 ft | 426 kts | 250° |
| 2026-05-04 13:03 | 28.10259 | 133.82237 | 36074 ft | 426 kts | 250° |
| 2026-05-04 13:04 | 28.08235 | 133.75934 | 36075 ft | 426 kts | 250° |
| 2026-05-04 13:04 | 28.06209 | 133.69634 | 36074 ft | 426 kts | 250° |
| 2026-05-04 13:05 | 28.04183 | 133.63344 | 36073 ft | 425 kts | 250° |
| 2026-05-04 13:05 | 28.02155 | 133.57061 | 36084 ft | 424 kts | 250° |
| 2026-05-04 13:06 | 28.00130 | 133.50796 | 36083 ft | 424 kts | 250° |
| 2026-05-04 13:06 | 27.98101 | 133.44535 | 36088 ft | 424 kts | 250° |
| 2026-05-04 13:07 | 27.96071 | 133.38272 | 36092 ft | 425 kts | 250° |
| 2026-05-04 13:07 | 27.94031 | 133.31992 | 36097 ft | 426 kts | 250° |
| 2026-05-04 13:08 | 27.91983 | 133.25703 | 36093 ft | 426 kts | 250° |
| 2026-05-04 13:08 | 27.90143 | 133.20057 | 36092 ft | 426 kts | 250° |
| 2026-05-04 13:09 | 27.88695 | 133.13567 | 36098 ft | 427 kts | 259° |
| 2026-05-04 13:09 | 27.88076 | 133.06884 | 36090 ft | 429 kts | 267° |
| 2026-05-04 13:10 | 27.88102 | 133.00140 | 36096 ft | 429 kts | 268° |
| 2026-05-04 13:10 | 27.88171 | 132.93396 | 36094 ft | 429 kts | 268° |
| 2026-05-04 13:11 | 27.88218 | 132.86657 | 36091 ft | 429 kts | 268° |
| 2026-05-04 13:11 | 27.88246 | 132.79927 | 36093 ft | 428 kts | 268° |
| 2026-05-04 13:12 | 27.88266 | 132.73204 | 36091 ft | 427 kts | 268° |
| 2026-05-04 13:12 | 27.88283 | 132.66500 | 36092 ft | 426 kts | 267° |
| 2026-05-04 13:13 | 27.88298 | 132.59807 | 36091 ft | 425 kts | 267° |
| 2026-05-04 13:13 | 27.88307 | 132.53132 | 36100 ft | 424 kts | 267° |
| 2026-05-04 13:14 | 27.88313 | 132.46470 | 36103 ft | 423 kts | 267° |
| 2026-05-04 13:14 | 27.88318 | 132.39819 | 36101 ft | 423 kts | 267° |
| 2026-05-04 13:15 | 27.88317 | 132.33179 | 36104 ft | 422 kts | 267° |
| 2026-05-04 13:15 | 27.88314 | 132.26546 | 36101 ft | 422 kts | 267° |
| 2026-05-04 13:16 | 27.88310 | 132.19961 | 36108 ft | 422 kts | 267° |
| 2026-05-04 13:16 | 27.88301 | 132.13335 | 36113 ft | 421 kts | 267° |
| 2026-05-04 13:17 | 27.88291 | 132.06713 | 36110 ft | 421 kts | 267° |
| 2026-05-04 13:17 | 27.88275 | 132.00093 | 36112 ft | 422 kts | 267° |
| 2026-05-04 13:18 | 27.88256 | 131.93465 | 36116 ft | 422 kts | 266° |
| 2026-05-04 13:18 | 27.88231 | 131.86837 | 36118 ft | 421 kts | 267° |
| 2026-05-04 13:19 | 27.88207 | 131.80217 | 36125 ft | 421 kts | 266° |
| 2026-05-04 13:19 | 27.88180 | 131.73589 | 36117 ft | 422 kts | 266° |
| 2026-05-04 13:20 | 27.88150 | 131.66966 | 36123 ft | 422 kts | 266° |
| 2026-05-04 13:20 | 27.88116 | 131.60332 | 36123 ft | 422 kts | 266° |
| 2026-05-04 13:21 | 27.88079 | 131.53703 | 36114 ft | 422 kts | 266° |
| 2026-05-04 13:21 | 27.88038 | 131.47071 | 36117 ft | 422 kts | 267° |
| 2026-05-04 13:22 | 27.88002 | 131.41562 | 36125 ft | 422 kts | 267° |
| 2026-05-04 13:22 | 27.87956 | 131.34928 | 36119 ft | 422 kts | 266° |
| 2026-05-04 13:23 | 27.87906 | 131.28289 | 36120 ft | 422 kts | 266° |
| 2026-05-04 13:23 | 27.87854 | 131.21651 | 36120 ft | 422 kts | 266° |
| 2026-05-04 13:24 | 27.87800 | 131.15016 | 36126 ft | 422 kts | 266° |
| 2026-05-04 13:24 | 27.87739 | 131.08381 | 36132 ft | 422 kts | 266° |
| 2026-05-04 13:25 | 27.87644 | 130.98419 | 36132 ft | 423 kts | 266° |
| 2026-05-04 13:25 | 27.87576 | 130.91777 | 36130 ft | 423 kts | 266° |
| 2026-05-04 13:26 | 27.87506 | 130.85130 | 36131 ft | 423 kts | 266° |
| 2026-05-04 13:26 | 27.87434 | 130.78495 | 36130 ft | 422 kts | 266° |
| 2026-05-04 13:27 | 27.87356 | 130.71862 | 36126 ft | 422 kts | 266° |
| 2026-05-04 13:27 | 27.87277 | 130.65248 | 36129 ft | 421 kts | 266° |
| 2026-05-04 13:28 | 27.87196 | 130.58643 | 36126 ft | 420 kts | 266° |
| 2026-05-04 13:28 | 27.86593 | 130.52123 | 36129 ft | 416 kts | 257° |
| 2026-05-04 13:29 | 27.85214 | 130.45836 | 36133 ft | 415 kts | 251° |
| 2026-05-04 13:29 | 27.83168 | 130.39746 | 36126 ft | 415 kts | 249° |
| 2026-05-04 13:30 | 27.81052 | 130.33684 | 36124 ft | 415 kts | 249° |
| 2026-05-04 13:30 | 27.78949 | 130.27631 | 36124 ft | 414 kts | 249° |
| 2026-05-04 13:31 | 27.76852 | 130.21565 | 36132 ft | 414 kts | 249° |
| 2026-05-04 13:31 | 27.74759 | 130.15505 | 36125 ft | 414 kts | 249° |
| 2026-05-04 13:32 | 27.72665 | 130.09439 | 36133 ft | 415 kts | 249° |
| 2026-05-04 13:32 | 27.70568 | 130.03371 | 36131 ft | 415 kts | 249° |
| 2026-05-04 13:33 | 27.68466 | 129.97308 | 36138 ft | 415 kts | 249° |
| 2026-05-04 13:33 | 27.66361 | 129.91244 | 36127 ft | 415 kts | 249° |
| 2026-05-04 13:34 | 27.64255 | 129.85190 | 36135 ft | 414 kts | 249° |
| 2026-05-04 13:34 | 27.62151 | 129.79146 | 36138 ft | 414 kts | 249° |
| 2026-05-04 13:35 | 27.58985 | 129.70072 | 36139 ft | 415 kts | 249° |
| 2026-05-04 13:36 | 27.56871 | 129.64029 | 36130 ft | 415 kts | 249° |
| 2026-05-04 13:36 | 27.54752 | 129.57978 | 36129 ft | 415 kts | 249° |
| 2026-05-04 13:37 | 27.52632 | 129.51934 | 36131 ft | 415 kts | 249° |
| 2026-05-04 13:37 | 27.50507 | 129.45885 | 36148 ft | 415 kts | 249° |
| 2026-05-04 13:38 | 27.48379 | 129.39835 | 36146 ft | 416 kts | 249° |
| 2026-05-04 13:38 | 27.46244 | 129.33781 | 36147 ft | 416 kts | 249° |
| 2026-05-04 13:39 | 27.44105 | 129.27721 | 36147 ft | 416 kts | 249° |
| 2026-05-04 13:39 | 27.41963 | 129.21667 | 36149 ft | 416 kts | 249° |
| 2026-05-04 13:40 | 27.39817 | 129.15612 | 36154 ft | 416 kts | 249° |
| 2026-05-04 13:40 | 27.37686 | 129.09604 | 36156 ft | 416 kts | 249° |
| 2026-05-04 13:41 | 27.35536 | 129.03557 | 36156 ft | 416 kts | 249° |
| 2026-05-04 13:41 | 27.33384 | 128.97509 | 36156 ft | 416 kts | 249° |
| 2026-05-04 13:42 | 27.30154 | 128.88448 | 36158 ft | 416 kts | 249° |
| 2026-05-04 13:42 | 27.28000 | 128.82417 | 36157 ft | 415 kts | 249° |
| 2026-05-04 13:43 | 27.25845 | 128.76398 | 36156 ft | 415 kts | 248° |
| 2026-05-04 13:43 | 27.23687 | 128.70380 | 36157 ft | 415 kts | 249° |
| 2026-05-04 13:44 | 27.21530 | 128.64369 | 36158 ft | 415 kts | 249° |
| 2026-05-04 13:44 | 27.19371 | 128.58365 | 36158 ft | 415 kts | 249° |
| 2026-05-04 13:45 | 27.17206 | 128.52360 | 36157 ft | 415 kts | 249° |
| 2026-05-04 13:45 | 27.15043 | 128.46360 | 36156 ft | 415 kts | 249° |
| 2026-05-04 13:46 | 27.12872 | 128.40350 | 36158 ft | 415 kts | 249° |
| 2026-05-04 13:46 | 27.10695 | 128.34339 | 36156 ft | 416 kts | 248° |
| 2026-05-04 13:47 | 27.08518 | 128.28332 | 36157 ft | 416 kts | 248° |
| 2026-05-04 13:47 | 27.06339 | 128.22326 | 36157 ft | 416 kts | 248° |
| 2026-05-04 13:48 | 27.04154 | 128.16314 | 36156 ft | 416 kts | 248° |
| 2026-05-04 13:48 | 27.01965 | 128.10302 | 36165 ft | 416 kts | 248° |
| 2026-05-04 13:49 | 26.99773 | 128.04293 | 36167 ft | 417 kts | 248° |
| 2026-05-04 13:49 | 26.97576 | 127.98276 | 36168 ft | 417 kts | 248° |
| 2026-05-04 13:50 | 26.95375 | 127.92259 | 36180 ft | 417 kts | 248° |
| 2026-05-04 13:50 | 26.93188 | 127.86294 | 36175 ft | 416 kts | 248° |
| 2026-05-04 13:51 | 26.90987 | 127.80296 | 36176 ft | 416 kts | 248° |
| 2026-05-04 13:51 | 26.88786 | 127.74309 | 36186 ft | 416 kts | 248° |
| 2026-05-04 13:52 | 26.85479 | 127.65325 | 36184 ft | 416 kts | 248° |
| 2026-05-04 13:53 | 26.83269 | 127.59339 | 36183 ft | 416 kts | 248° |
| 2026-05-04 13:53 | 26.81056 | 127.53346 | 36183 ft | 417 kts | 248° |
| 2026-05-04 13:54 | 26.77726 | 127.44354 | 36183 ft | 417 kts | 248° |
| 2026-05-04 13:55 | 26.74393 | 127.35369 | 36186 ft | 418 kts | 248° |
| 2026-05-04 13:55 | 26.71046 | 127.26375 | 36175 ft | 417 kts | 248° |
| 2026-05-04 13:56 | 26.68814 | 127.20380 | 36169 ft | 418 kts | 248° |
| 2026-05-04 13:57 | 26.65461 | 127.11399 | 36166 ft | 417 kts | 248° |
| 2026-05-04 13:58 | 26.60984 | 126.99442 | 36157 ft | 417 kts | 248° |
| 2026-05-04 13:58 | 26.57622 | 126.90475 | 36157 ft | 417 kts | 248° |
| 2026-05-04 13:59 | 26.55375 | 126.84501 | 36155 ft | 417 kts | 248° |
| 2026-05-04 14:00 | 26.52003 | 126.75560 | 36158 ft | 416 kts | 248° |
| 2026-05-04 14:00 | 26.48648 | 126.66669 | 36143 ft | 416 kts | 248° |
| 2026-05-04 14:01 | 26.46397 | 126.60715 | 36149 ft | 416 kts | 248° |
| 2026-05-04 14:02 | 26.43016 | 126.51788 | 36148 ft | 417 kts | 248° |
| 2026-05-04 14:02 | 26.40753 | 126.45837 | 36146 ft | 417 kts | 248° |
| 2026-05-04 14:03 | 26.38491 | 126.39889 | 36147 ft | 417 kts | 248° |
| 2026-05-04 14:03 | 26.36225 | 126.33937 | 36150 ft | 417 kts | 248° |
| 2026-05-04 14:04 | 26.32817 | 126.24998 | 36138 ft | 418 kts | 248° |
| 2026-05-04 14:04 | 26.30536 | 126.19033 | 36147 ft | 418 kts | 248° |
| 2026-05-04 14:05 | 26.27108 | 126.10080 | 36132 ft | 419 kts | 248° |
| 2026-05-04 14:06 | 26.24819 | 126.04108 | 36134 ft | 419 kts | 248° |
| 2026-05-04 14:06 | 26.22524 | 125.98135 | 36143 ft | 419 kts | 248° |
| 2026-05-04 14:07 | 26.20227 | 125.92168 | 36146 ft | 419 kts | 248° |
| 2026-05-04 14:07 | 26.17931 | 125.86210 | 36128 ft | 419 kts | 248° |
| 2026-05-04 14:08 | 26.15649 | 125.80297 | 36122 ft | 419 kts | 248° |
| 2026-05-04 14:08 | 26.13347 | 125.74337 | 36113 ft | 419 kts | 248° |
| 2026-05-04 14:09 | 26.09895 | 125.65417 | 36113 ft | 418 kts | 248° |
| 2026-05-04 14:10 | 26.06440 | 125.56511 | 36113 ft | 418 kts | 248° |
| 2026-05-04 14:10 | 26.04134 | 125.50585 | 36111 ft | 417 kts | 248° |
| 2026-05-04 14:11 | 26.01831 | 125.44669 | 36107 ft | 416 kts | 248° |
| 2026-05-04 14:11 | 25.98378 | 125.35815 | 36104 ft | 416 kts | 248° |
| 2026-05-04 14:12 | 25.96444 | 125.30861 | 36109 ft | 418 kts | 248° |
| 2026-05-04 14:13 | 25.92979 | 125.22009 | 36115 ft | 419 kts | 248° |
| 2026-05-04 14:13 | 25.90650 | 125.16062 | 36110 ft | 420 kts | 248° |
| 2026-05-04 14:14 | 25.88315 | 125.10111 | 36114 ft | 421 kts | 247° |
| 2026-05-04 14:14 | 25.84803 | 125.01181 | 36108 ft | 421 kts | 247° |
| 2026-05-04 14:15 | 25.80337 | 124.89850 | 36123 ft | 420 kts | 247° |
| 2026-05-04 14:16 | 25.76826 | 124.80963 | 36128 ft | 419 kts | 247° |
| 2026-05-04 14:17 | 25.73314 | 124.72097 | 36123 ft | 418 kts | 247° |
| 2026-05-04 14:18 | 25.69805 | 124.63249 | 36133 ft | 418 kts | 247° |
| 2026-05-04 14:19 | 25.65127 | 124.51489 | 36135 ft | 416 kts | 247° |
| 2026-05-04 14:19 | 25.62787 | 124.45621 | 36137 ft | 416 kts | 247° |
| 2026-05-04 14:20 | 25.60448 | 124.39763 | 36134 ft | 416 kts | 247° |
| 2026-05-04 14:20 | 25.58110 | 124.33910 | 36132 ft | 415 kts | 247° |
| 2026-05-04 14:21 | 25.54598 | 124.25148 | 36133 ft | 415 kts | 247° |
| 2026-05-04 14:21 | 25.52258 | 124.19308 | 36130 ft | 415 kts | 247° |
| 2026-05-04 14:22 | 25.49912 | 124.13465 | 36131 ft | 415 kts | 247° |
| 2026-05-04 14:22 | 25.47561 | 124.07620 | 36129 ft | 416 kts | 246° |
| 2026-05-04 14:23 | 25.44027 | 123.98849 | 36125 ft | 416 kts | 246° |
| 2026-05-04 14:24 | 25.41681 | 123.93036 | 36125 ft | 416 kts | 247° |
| 2026-05-04 14:24 | 25.39319 | 123.87192 | 36130 ft | 416 kts | 247° |
| 2026-05-04 14:25 | 25.36954 | 123.81348 | 36123 ft | 416 kts | 247° |
| 2026-05-04 14:25 | 25.33403 | 123.72587 | 36126 ft | 416 kts | 247° |
| 2026-05-04 14:26 | 25.31034 | 123.66755 | 36130 ft | 416 kts | 246° |
| 2026-05-04 14:26 | 25.28662 | 123.60924 | 36125 ft | 416 kts | 247° |
| 2026-05-04 14:27 | 25.26286 | 123.55086 | 36134 ft | 417 kts | 247° |
| 2026-05-04 14:27 | 25.23907 | 123.49243 | 36134 ft | 418 kts | 247° |
| 2026-05-04 14:28 | 25.21515 | 123.43392 | 36130 ft | 418 kts | 247° |
| 2026-05-04 14:28 | 25.19119 | 123.37533 | 36121 ft | 419 kts | 247° |
| 2026-05-04 14:29 | 25.14316 | 123.25809 | 36127 ft | 419 kts | 247° |
| 2026-05-04 14:30 | 25.11910 | 123.19946 | 36132 ft | 420 kts | 247° |
| 2026-05-04 14:31 | 25.08312 | 123.11194 | 36126 ft | 420 kts | 247° |
| 2026-05-04 14:32 | 25.04526 | 122.99132 | 36142 ft | 418 kts | 261° |
| 2026-05-04 14:32 | 25.04321 | 122.92717 | 36130 ft | 422 kts | 272° |
| 2026-05-04 14:33 | 25.04980 | 122.86290 | 36138 ft | 422 kts | 274° |
| 2026-05-04 14:33 | 25.05672 | 122.79858 | 36125 ft | 422 kts | 273° |
| 2026-05-04 14:34 | 25.06325 | 122.73431 | 36126 ft | 421 kts | 273° |
| 2026-05-04 14:34 | 25.06956 | 122.67010 | 36132 ft | 421 kts | 273° |
| 2026-05-04 14:35 | 25.07581 | 122.60591 | 36127 ft | 421 kts | 273° |
| 2026-05-04 14:35 | 25.08201 | 122.54173 | 36122 ft | 420 kts | 273° |
| 2026-05-04 14:36 | 25.08818 | 122.47778 | 35961 ft | 418 kts | 273° |
| 2026-05-04 14:36 | 25.09125 | 122.44575 | 35381 ft | 419 kts | 272° |
| 2026-05-04 14:36 | 25.09431 | 122.41404 | 34851 ft | 414 kts | 272° |
| 2026-05-04 14:36 | 25.09733 | 122.38267 | 34315 ft | 409 kts | 272° |
| 2026-05-04 14:37 | 25.10030 | 122.35164 | 33768 ft | 405 kts | 272° |
| 2026-05-04 14:37 | 25.10417 | 122.32094 | 33221 ft | 404 kts | 278° |
| 2026-05-04 14:37 | 25.11182 | 122.29106 | 32684 ft | 405 kts | 283° |
| 2026-05-04 14:37 | 25.12184 | 122.26204 | 32171 ft | 404 kts | 287° |
| 2026-05-04 14:38 | 25.13436 | 122.23421 | 31648 ft | 406 kts | 293° |
| 2026-05-04 14:38 | 25.14865 | 122.20747 | 31136 ft | 403 kts | 294° |
| 2026-05-04 14:38 | 25.16306 | 122.18106 | 30620 ft | 400 kts | 294° |
| 2026-05-04 14:38 | 25.17723 | 122.15519 | 30130 ft | 398 kts | 294° |
| 2026-05-04 14:39 | 25.19145 | 122.12912 | 29620 ft | 395 kts | 294° |
| 2026-05-04 14:39 | 25.20552 | 122.10318 | 29103 ft | 392 kts | 294° |
| 2026-05-04 14:39 | 25.21941 | 122.07741 | 28592 ft | 390 kts | 294° |
| 2026-05-04 14:40 | 25.24685 | 122.02627 | 27581 ft | 384 kts | 294° |
| 2026-05-04 14:40 | 25.26042 | 122.00093 | 27080 ft | 382 kts | 294° |
| 2026-05-04 14:40 | 25.27390 | 121.97574 | 26581 ft | 380 kts | 294° |
| 2026-05-04 14:40 | 25.28728 | 121.95071 | 26092 ft | 377 kts | 294° |
| 2026-05-04 14:41 | 25.30059 | 121.92582 | 25599 ft | 375 kts | 294° |
| 2026-05-04 14:41 | 25.31382 | 121.90103 | 25113 ft | 373 kts | 294° |
| 2026-05-04 14:41 | 25.34001 | 121.85194 | 24152 ft | 369 kts | 294° |
| 2026-05-04 14:42 | 25.36591 | 121.80338 | 23207 ft | 364 kts | 294° |
| 2026-05-04 14:42 | 25.37872 | 121.77932 | 22730 ft | 362 kts | 294° |
| 2026-05-04 14:42 | 25.39148 | 121.75537 | 22254 ft | 360 kts | 294° |
| 2026-05-04 14:43 | 25.40416 | 121.73155 | 21786 ft | 358 kts | 294° |
| 2026-05-04 14:43 | 25.41673 | 121.70792 | 21325 ft | 356 kts | 294° |
| 2026-05-04 14:43 | 25.42923 | 121.68440 | 20874 ft | 353 kts | 294° |
| 2026-05-04 14:43 | 25.44164 | 121.66105 | 20418 ft | 351 kts | 295° |
| 2026-05-04 14:44 | 25.45397 | 121.63785 | 19975 ft | 349 kts | 294° |
| 2026-05-04 14:44 | 25.46511 | 121.61449 | 19515 ft | 336 kts | 284° |
| 2026-05-04 14:44 | 25.46883 | 121.58961 | 19098 ft | 324 kts | 266° |
| 2026-05-04 14:44 | 25.46581 | 121.56521 | 18674 ft | 319 kts | 255° |
| 2026-05-04 14:45 | 25.45894 | 121.54204 | 18236 ft | 317 kts | 245° |
| 2026-05-04 14:45 | 25.44652 | 121.52212 | 17796 ft | 316 kts | 231° |
| 2026-05-04 14:45 | 25.43179 | 121.50419 | 17359 ft | 314 kts | 231° |
| 2026-05-04 14:45 | 25.41740 | 121.48613 | 16916 ft | 312 kts | 232° |
| 2026-05-04 14:46 | 25.40318 | 121.46802 | 16484 ft | 311 kts | 232° |
| 2026-05-04 14:46 | 25.38906 | 121.45001 | 16059 ft | 309 kts | 232° |
| 2026-05-04 14:46 | 25.37502 | 121.43209 | 15633 ft | 308 kts | 232° |
| 2026-05-04 14:46 | 25.36104 | 121.41423 | 15204 ft | 306 kts | 232° |
| 2026-05-04 14:47 | 25.34713 | 121.39647 | 14782 ft | 305 kts | 232° |
| 2026-05-04 14:47 | 25.33345 | 121.37903 | 14370 ft | 304 kts | 232° |
| 2026-05-04 14:47 | 25.31964 | 121.36141 | 13954 ft | 302 kts | 232° |
| 2026-05-04 14:47 | 25.30590 | 121.34388 | 13539 ft | 302 kts | 232° |
| 2026-05-04 14:48 | 25.29219 | 121.32638 | 13126 ft | 301 kts | 232° |
| 2026-05-04 14:48 | 25.27849 | 121.30892 | 12704 ft | 298 kts | 232° |
| 2026-05-04 14:48 | 25.26518 | 121.29202 | 12236 ft | 285 kts | 232° |
| 2026-05-04 14:48 | 25.25238 | 121.27575 | 11709 ft | 276 kts | 232° |
| 2026-05-04 14:49 | 25.23995 | 121.25986 | 11235 ft | 274 kts | 232° |
| 2026-05-04 14:49 | 25.22737 | 121.24379 | 10802 ft | 280 kts | 231° |
| 2026-05-04 14:49 | 25.21446 | 121.22737 | 10355 ft | 286 kts | 231° |
| 2026-05-04 14:49 | 25.20131 | 121.21062 | 9913 ft | 291 kts | 231° |
| 2026-05-04 14:50 | 25.18801 | 121.19368 | 9467 ft | 293 kts | 230° |
| 2026-05-04 14:50 | 25.17457 | 121.17660 | 9016 ft | 296 kts | 230° |
| 2026-05-04 14:50 | 25.16103 | 121.15940 | 8559 ft | 298 kts | 230° |
| 2026-05-04 14:50 | 25.14735 | 121.14203 | 8128 ft | 301 kts | 230° |
| 2026-05-04 14:51 | 25.13359 | 121.12456 | 7675 ft | 300 kts | 229° |
| 2026-05-04 14:51 | 25.12014 | 121.10749 | 7204 ft | 290 kts | 229° |
| 2026-05-04 14:51 | 25.10709 | 121.09092 | 6729 ft | 282 kts | 229° |
| 2026-05-04 14:51 | 25.09444 | 121.07485 | 6271 ft | 274 kts | 229° |
| 2026-05-04 14:52 | 25.08205 | 121.05914 | 5820 ft | 269 kts | 229° |
| 2026-05-04 14:52 | 25.06981 | 121.04356 | 5375 ft | 271 kts | 229° |
| 2026-05-04 14:52 | 25.05730 | 121.02770 | 4952 ft | 277 kts | 229° |
| 2026-05-04 14:52 | 25.04457 | 121.01154 | 4512 ft | 278 kts | 229° |
| 2026-05-04 14:53 | 25.03198 | 120.99563 | 4088 ft | 272 kts | 229° |
| 2026-05-04 14:53 | 25.01994 | 120.98037 | 3934 ft | 257 kts | 229° |
| 2026-05-04 14:53 | 25.00813 | 120.96540 | 3953 ft | 259 kts | 229° |
| 2026-05-04 14:53 | 24.99529 | 120.95193 | 3919 ft | 250 kts | 207° |
| 2026-05-04 14:54 | 24.97926 | 120.94747 | 3940 ft | 233 kts | 173° |
| 2026-05-04 14:54 | 24.96405 | 120.95217 | 3944 ft | 225 kts | 149° |
| 2026-05-04 14:54 | 24.95121 | 120.96185 | 3944 ft | 223 kts | 131° |
| 2026-05-04 14:54 | 24.94200 | 120.97527 | 3956 ft | 219 kts | 119° |
| 2026-05-04 14:55 | 24.93399 | 120.98955 | 3947 ft | 222 kts | 118° |
| 2026-05-04 14:55 | 24.92582 | 121.00409 | 3953 ft | 224 kts | 119° |
| 2026-05-04 14:55 | 24.91835 | 121.01876 | 3961 ft | 215 kts | 106° |
| 2026-05-04 14:55 | 24.91793 | 121.03463 | 3943 ft | 208 kts | 70° |
| 2026-05-04 14:56 | 24.92491 | 121.04795 | 3964 ft | 194 kts | 55° |
| 2026-05-04 14:56 | 24.93245 | 121.05971 | 3897 ft | 184 kts | 53° |
| 2026-05-04 14:56 | 24.94032 | 121.07063 | 3652 ft | 177 kts | 50° |
| 2026-05-04 14:56 | 24.94792 | 121.08050 | 3448 ft | 162 kts | 50° |
| 2026-05-04 14:57 | 24.95509 | 121.08962 | 3216 ft | 155 kts | 50° |
| 2026-05-04 14:57 | 24.96188 | 121.09825 | 3045 ft | 144 kts | 50° |
| 2026-05-04 14:57 | 24.96836 | 121.10645 | 2853 ft | 145 kts | 49° |
| 2026-05-04 14:57 | 24.97496 | 121.11479 | 2671 ft | 143 kts | 50° |
| 2026-05-04 14:58 | 24.98145 | 121.12300 | 2470 ft | 140 kts | 50° |
| 2026-05-04 14:58 | 24.98787 | 121.13112 | 2276 ft | 138 kts | 50° |
| 2026-05-04 14:58 | 24.99412 | 121.13905 | 2098 ft | 137 kts | 50° |
| 2026-05-04 14:58 | 24.99828 | 121.14431 | 1987 ft | 138 kts | 50° |
| 2026-05-04 14:59 | 25.00672 | 121.15500 | 1731 ft | 138 kts | 50° |
| 2026-05-04 14:59 | 25.01296 | 121.16289 | 1560 ft | 138 kts | 51° |
| 2026-05-04 14:59 | 25.02554 | 121.17885 | 1175 ft | 137 kts | 51° |
| 2026-05-04 15:00 | 25.03168 | 121.18680 | 985 ft | 136 kts | 52° |
| 2026-05-04 15:00 | 25.03793 | 121.19465 | 793 ft | 135 kts | 50° |
| 2026-05-04 15:00 | 25.04420 | 121.20250 | 647 ft | 139 kts | 50° |
| 2026-05-04 15:01 | 25.05471 | 121.21587 | 317 ft | 135 kts | 51° |
| 2026-05-04 15:01 | 25.06090 | 121.22362 | 133 ft | 135 kts | 50° |
| 2026-05-04 15:01 | 25.06668 | 121.23098 | 100 ft | 108 kts | 48° |
| 2026-05-04 15:01 | 25.07035 | 121.23563 | 100 ft | 47 kts | 48° |
| 2026-05-04 15:02 | 25.07257 | 121.23722 | 101 ft | 30 kts | 20° |
| 2026-05-04 15:02 | 25.07305 | 121.23741 | 100 ft | 0 kts | 19° |
| 2026-05-04 15:02 | 25.07327 | 121.23749 | 101 ft | 9 kts | 19° |
| 2026-05-04 15:02 | 25.07402 | 121.23777 | 103 ft | 14 kts | 19° |
| 2026-05-04 15:03 | 25.07472 | 121.23794 | 106 ft | 10 kts | 356° |
| 2026-05-04 15:03 | 25.07529 | 121.23760 | 106 ft | 9 kts | 325° |
| 2026-05-04 15:03 | 25.07580 | 121.23716 | 108 ft | 10 kts | 318° |
| 2026-05-04 15:03 | 25.07651 | 121.23681 | 107 ft | 13 kts | 330° |
| 2026-05-04 15:04 | 25.07713 | 121.23627 | 106 ft | 8 kts | 320° |
| 2026-05-04 15:04 | 25.07732 | 121.23608 | 106 ft | 1 kts | 319° |